createdAt,value
2022-12-25T00:00:02.884Z,299.00
2022-12-25T00:01:02.935Z,291.00
2022-12-25T00:02:02.874Z,292.20
2022-12-25T00:03:03.027Z,289.30
2022-12-25T00:04:02.921Z,296.10
2022-12-25T00:05:02.841Z,304.30
2022-12-25T00:06:02.814Z,310.30
2022-12-25T00:07:02.849Z,342.90
2022-12-25T00:08:02.791Z,325.20
2022-12-25T00:09:02.776Z,332.10
2022-12-25T00:10:02.753Z,319.00
2022-12-25T00:11:02.760Z,335.30
2022-12-25T00:12:02.780Z,358.00
2022-12-25T00:13:02.727Z,343.20
2022-12-25T00:14:02.706Z,337.60
2022-12-25T00:15:02.727Z,322.00
2022-12-25T00:16:02.776Z,313.70
2022-12-25T00:17:02.721Z,306.30
2022-12-25T00:18:02.663Z,332.30
2022-12-25T00:19:02.666Z,325.20
2022-12-25T00:20:02.643Z,318.10
2022-12-25T00:21:02.650Z,344.70
2022-12-25T00:22:02.617Z,313.20
2022-12-25T00:23:02.658Z,354.70
2022-12-25T00:24:02.610Z,337.70
2022-12-25T00:25:02.685Z,350.80
2022-12-25T00:26:02.576Z,371.40
2022-12-25T00:27:02.603Z,373.50
2022-12-25T00:28:02.559Z,364.60
2022-12-25T00:29:02.567Z,379.60
2022-12-25T00:30:02.527Z,385.30
2022-12-25T00:31:02.556Z,368.00
2022-12-25T00:32:02.591Z,414.70
2022-12-25T00:33:02.511Z,385.60
2022-12-25T00:34:02.524Z,397.20
2022-12-25T00:35:02.487Z,374.80
2022-12-25T00:36:02.472Z,344.40
2022-12-25T00:37:02.464Z,333.10
2022-12-25T00:38:02.426Z,302.90
2022-12-25T00:39:02.472Z,321.20
2022-12-25T00:40:02.426Z,340.60
2022-12-25T00:41:02.422Z,318.20
2022-12-25T00:42:02.402Z,349.60
2022-12-25T00:43:02.432Z,368.70
2022-12-25T00:44:02.417Z,366.70
2022-12-25T00:45:02.378Z,360.60
2022-12-25T00:46:02.430Z,375.10
2022-12-25T00:47:02.423Z,322.70
2022-12-25T00:48:02.321Z,364.70
2022-12-25T00:49:02.337Z,355.00
2022-12-25T00:50:02.332Z,352.60
2022-12-25T00:51:02.340Z,380.70
2022-12-25T00:52:02.310Z,372.30
2022-12-25T00:53:02.279Z,379.70
2022-12-25T00:54:02.258Z,373.00
2022-12-25T00:55:02.304Z,347.50
2022-12-25T00:56:02.243Z,330.20
2022-12-25T00:57:02.273Z,300.80
2022-12-25T00:58:02.231Z,301.60
2022-12-25T00:59:02.234Z,326.20
2022-12-25T01:00:02.211Z,325.60
2022-12-25T01:01:02.287Z,326.30
2022-12-25T01:02:02.215Z,300.20
2022-12-25T01:03:02.362Z,291.70
2022-12-25T01:04:02.154Z,272.10
2022-12-25T01:05:02.197Z,268.90
2022-12-25T01:06:02.124Z,248.00
2022-12-25T01:07:02.134Z,230.10
2022-12-25T01:08:02.133Z,224.20
2022-12-25T01:09:02.102Z,226.10
2022-12-25T01:10:02.108Z,185.90
2022-12-25T01:11:02.086Z,217.70
2022-12-25T01:12:02.052Z,198.60
2022-12-25T01:13:02.107Z,204.00
2022-12-25T01:14:02.066Z,206.00
2022-12-25T01:15:02.041Z,209.80
2022-12-25T01:16:02.037Z,216.00
2022-12-25T01:17:02.013Z,225.50
2022-12-25T01:18:07.632Z,227.60
2022-12-25T01:19:02.049Z,250.70
2022-12-25T01:20:01.972Z,236.40
2022-12-25T01:21:01.970Z,238.00
2022-12-25T01:22:01.960Z,193.40
2022-12-25T01:23:01.971Z,201.60
2022-12-25T01:24:01.935Z,195.20
2022-12-25T01:25:01.929Z,197.40
2022-12-25T01:26:01.896Z,206.70
2022-12-25T01:27:01.940Z,196.00
2022-12-25T01:28:01.883Z,189.60
2022-12-25T01:29:01.871Z,208.80
2022-12-25T01:30:01.858Z,205.30
2022-12-25T01:31:01.852Z,201.40
2022-12-25T01:32:01.992Z,217.10
2022-12-25T01:33:01.851Z,194.00
2022-12-25T01:34:01.827Z,228.60
2022-12-25T01:35:01.853Z,228.60
2022-12-25T01:36:01.785Z,221.20
2022-12-25T01:37:01.801Z,231.30
2022-12-25T01:38:01.802Z,232.90
2022-12-25T01:39:01.760Z,245.30
2022-12-25T01:40:01.819Z,245.40
2022-12-25T01:41:01.735Z,267.50
2022-12-25T01:42:01.754Z,256.30
2022-12-25T01:43:01.737Z,287.50
2022-12-25T01:44:01.734Z,265.70
2022-12-25T01:45:01.734Z,243.60
2022-12-25T01:46:01.719Z,251.60
2022-12-25T01:47:01.673Z,258.20
2022-12-25T01:48:01.659Z,266.00
2022-12-25T01:49:01.701Z,297.70
2022-12-25T01:50:01.632Z,294.70
2022-12-25T01:51:01.684Z,264.50
2022-12-25T01:52:01.612Z,262.10
2022-12-25T01:53:01.760Z,259.80
2022-12-25T01:54:01.614Z,263.20
2022-12-25T01:55:01.583Z,266.50
2022-12-25T01:56:01.608Z,254.90
2022-12-25T01:57:01.584Z,272.80
2022-12-25T01:58:01.537Z,274.40
2022-12-25T01:59:01.540Z,315.80
2022-12-25T02:00:01.513Z,336.50
2022-12-25T02:01:01.572Z,357.90
2022-12-25T02:02:01.676Z,296.90
2022-12-25T02:03:01.568Z,353.90
2022-12-25T02:04:01.496Z,342.80
2022-12-25T02:05:01.491Z,357.50
2022-12-25T02:06:01.448Z,391.20
2022-12-25T02:07:01.478Z,425.80
2022-12-25T02:08:01.428Z,448.60
2022-12-25T02:09:01.447Z,412.00
2022-12-25T02:10:01.420Z,407.10
2022-12-25T02:11:01.392Z,461.40
2022-12-25T02:12:01.417Z,414.50
2022-12-25T02:13:01.380Z,420.90
2022-12-25T02:14:01.392Z,503.60
2022-12-25T02:15:05.820Z,401.60
2022-12-25T02:16:01.451Z,411.50
2022-12-25T02:17:01.392Z,456.60
2022-12-25T02:18:01.305Z,444.20
2022-12-25T02:19:01.308Z,457.30
2022-12-25T02:20:01.321Z,491.90
2022-12-25T02:21:01.286Z,463.90
2022-12-25T02:22:01.266Z,543.50
2022-12-25T02:23:01.260Z,524.20
2022-12-25T02:24:01.241Z,500.00
2022-12-25T02:25:01.240Z,493.40
2022-12-25T02:26:01.289Z,468.10
2022-12-25T02:27:01.233Z,463.10
2022-12-25T02:28:01.268Z,434.60
2022-12-25T02:29:01.232Z,480.90
2022-12-25T02:30:01.193Z,521.80
2022-12-25T02:31:01.201Z,456.20
2022-12-25T02:32:01.262Z,402.00
2022-12-25T02:33:01.160Z,440.50
2022-12-25T02:34:01.164Z,542.60
2022-12-25T02:35:01.123Z,572.30
2022-12-25T02:36:01.119Z,516.20
2022-12-25T02:37:01.115Z,492.00
2022-12-25T02:38:01.133Z,489.00
2022-12-25T02:39:01.102Z,502.00
2022-12-25T02:40:01.075Z,431.80
2022-12-25T02:41:01.055Z,444.20
2022-12-25T02:42:01.109Z,556.40
2022-12-25T02:43:01.029Z,418.10
2022-12-25T02:44:01.542Z,467.00
2022-12-25T02:45:01.043Z,502.60
2022-12-25T02:46:01.576Z,394.00
2022-12-25T02:47:00.985Z,417.70
2022-12-25T02:48:00.978Z,394.30
2022-12-25T02:49:01.016Z,385.30
2022-12-25T02:50:00.966Z,431.40
2022-12-25T02:51:00.976Z,372.90
2022-12-25T02:52:00.939Z,437.50
2022-12-25T02:53:00.916Z,364.00
2022-12-25T02:54:00.952Z,375.70
2022-12-25T02:55:00.900Z,403.40
2022-12-25T02:56:00.895Z,365.00
2022-12-25T02:57:00.908Z,361.10
2022-12-25T02:58:00.884Z,394.10
2022-12-25T02:59:00.871Z,393.70
2022-12-25T03:00:00.903Z,447.70
2022-12-25T03:01:00.914Z,369.20
2022-12-25T03:02:01.012Z,359.20
2022-12-25T03:03:00.850Z,413.80
2022-12-25T03:04:00.812Z,328.30
2022-12-25T03:05:00.822Z,416.90
2022-12-25T03:06:00.833Z,417.50
2022-12-25T03:07:00.756Z,391.40
2022-12-25T03:08:00.768Z,364.30
2022-12-25T03:09:00.735Z,397.00
2022-12-25T03:10:00.776Z,404.10
2022-12-25T03:11:00.730Z,400.20
2022-12-25T03:12:00.717Z,330.60
2022-12-25T03:13:00.693Z,373.30
2022-12-25T03:14:00.694Z,343.40
2022-12-25T03:15:00.703Z,382.80
2022-12-25T03:16:00.668Z,339.60
2022-12-25T03:17:00.672Z,312.10
2022-12-25T03:18:00.665Z,376.00
2022-12-25T03:19:00.674Z,364.80
2022-12-25T03:20:00.708Z,375.30
2022-12-25T03:21:00.720Z,351.70
2022-12-25T03:22:00.643Z,311.70
2022-12-25T03:23:00.654Z,330.10
2022-12-25T03:24:00.578Z,318.50
2022-12-25T03:25:00.596Z,359.90
2022-12-25T03:26:00.605Z,325.50
2022-12-25T03:27:00.533Z,302.60
2022-12-25T03:28:00.557Z,301.20
2022-12-25T03:29:01.070Z,298.20
2022-12-25T03:30:00.543Z,322.40
2022-12-25T03:31:00.604Z,260.00
2022-12-25T03:32:00.533Z,330.80
2022-12-25T03:33:01.865Z,270.80
2022-12-25T03:34:00.476Z,333.90
2022-12-25T03:35:00.440Z,283.50
2022-12-25T03:36:00.498Z,333.00
2022-12-25T03:37:00.439Z,337.10
2022-12-25T03:38:00.429Z,302.70
2022-12-25T03:39:00.403Z,293.30
2022-12-25T03:40:00.408Z,334.70
2022-12-25T03:41:00.374Z,301.60
2022-12-25T03:42:00.411Z,373.30
2022-12-25T03:43:00.369Z,321.10
2022-12-25T03:44:00.363Z,355.20
2022-12-25T03:45:00.363Z,398.60
2022-12-25T03:46:00.373Z,360.80
2022-12-25T03:47:00.311Z,364.40
2022-12-25T03:48:00.312Z,390.80
2022-12-25T03:49:00.295Z,471.10
2022-12-25T03:50:00.312Z,420.40
2022-12-25T03:51:00.271Z,390.90
2022-12-25T03:52:00.246Z,358.90
2022-12-25T03:53:00.282Z,349.40
2022-12-25T03:54:00.258Z,351.40
2022-12-25T03:55:00.284Z,339.70
2022-12-25T03:56:00.279Z,336.90
2022-12-25T03:57:00.206Z,334.40
2022-12-25T03:58:00.204Z,333.20
2022-12-25T03:59:00.201Z,346.70
2022-12-25T04:00:01.026Z,366.00
2022-12-25T04:01:00.401Z,359.10
2022-12-25T04:02:00.406Z,342.00
2022-12-25T04:03:00.221Z,327.10
2022-12-25T04:04:00.165Z,371.50
2022-12-25T04:05:00.140Z,355.10
2022-12-25T04:06:00.138Z,413.00
2022-12-25T04:07:00.105Z,320.70
2022-12-25T04:08:00.094Z,338.10
2022-12-25T04:09:00.104Z,319.60
2022-12-25T04:10:00.107Z,306.50
2022-12-25T04:11:00.037Z,339.70
2022-12-25T04:12:02.719Z,374.40
2022-12-25T04:13:00.016Z,330.40
2022-12-25T04:14:00.077Z,279.30
2022-12-25T04:14:59.999Z,293.60
2022-12-25T04:16:00.144Z,257.70
2022-12-25T04:16:59.972Z,268.30
2022-12-25T04:18:00.029Z,304.00
2022-12-25T04:18:59.955Z,274.40
2022-12-25T04:20:00.538Z,299.30
2022-12-25T04:20:59.928Z,256.70
2022-12-25T04:21:59.929Z,269.90
2022-12-25T04:22:59.945Z,291.70
2022-12-25T04:23:59.912Z,283.50
2022-12-25T04:24:59.892Z,305.80
2022-12-25T04:25:59.905Z,262.50
2022-12-25T04:26:59.906Z,269.50
2022-12-25T04:27:59.874Z,292.00
2022-12-25T04:28:59.846Z,285.20
2022-12-25T04:29:59.839Z,310.60
2022-12-25T04:30:59.840Z,295.20
2022-12-25T04:31:59.824Z,294.40
2022-12-25T04:32:59.843Z,302.40
2022-12-25T04:33:59.793Z,275.70
2022-12-25T04:34:59.766Z,256.20
2022-12-25T04:35:59.780Z,280.70
2022-12-25T04:36:59.803Z,280.60
2022-12-25T04:37:59.746Z,289.80
2022-12-25T04:38:59.734Z,256.40
2022-12-25T04:39:59.754Z,260.90
2022-12-25T04:40:59.706Z,247.70
2022-12-25T04:41:59.752Z,243.40
2022-12-25T04:42:59.676Z,229.50
2022-12-25T04:43:59.685Z,252.10
2022-12-25T04:44:59.711Z,246.40
2022-12-25T04:45:59.733Z,226.00
2022-12-25T04:46:59.680Z,240.50
2022-12-25T04:47:59.640Z,243.80
2022-12-25T04:48:59.633Z,227.20
2022-12-25T04:49:59.659Z,212.10
2022-12-25T04:50:59.619Z,218.50
2022-12-25T04:51:59.624Z,213.60
2022-12-25T04:52:59.576Z,215.50
2022-12-25T04:53:59.578Z,188.50
2022-12-25T04:54:59.548Z,190.60
2022-12-25T04:55:59.560Z,199.80
2022-12-25T04:56:59.573Z,205.10
2022-12-25T04:57:59.588Z,203.90
2022-12-25T04:58:59.552Z,214.00
2022-12-25T04:59:59.500Z,212.60
2022-12-25T05:00:59.516Z,189.80
2022-12-25T05:01:59.571Z,204.70
2022-12-25T05:02:59.678Z,200.60
2022-12-25T05:03:59.514Z,188.00
2022-12-25T05:04:59.444Z,183.50
2022-12-25T05:05:59.486Z,199.30
2022-12-25T05:06:59.646Z,184.80
2022-12-25T05:07:59.443Z,191.30
2022-12-25T05:08:59.388Z,201.30
2022-12-25T05:09:59.425Z,197.20
2022-12-25T05:10:59.366Z,173.40
2022-12-25T05:11:59.388Z,190.70
2022-12-25T05:12:59.344Z,198.10
2022-12-25T05:13:59.349Z,209.10
2022-12-25T05:14:59.363Z,186.90
2022-12-25T05:15:59.368Z,186.40
2022-12-25T05:16:59.293Z,169.20
2022-12-25T05:17:59.306Z,178.20
2022-12-25T05:18:59.321Z,187.40
2022-12-25T05:19:59.350Z,168.70
2022-12-25T05:20:59.269Z,199.20
2022-12-25T05:21:59.260Z,195.20
2022-12-25T05:22:59.227Z,176.30
2022-12-25T05:23:59.273Z,175.40
2022-12-25T05:24:59.208Z,173.90
2022-12-25T05:25:59.206Z,187.40
2022-12-25T05:26:59.186Z,162.10
2022-12-25T05:27:59.192Z,152.10
2022-12-25T05:28:59.203Z,173.80
2022-12-25T05:29:59.199Z,191.40
2022-12-25T05:30:59.187Z,166.40
2022-12-25T05:31:59.145Z,170.90
2022-12-25T05:32:59.124Z,199.60
2022-12-25T05:33:59.148Z,170.10
2022-12-25T05:34:59.092Z,186.50
2022-12-25T05:35:59.103Z,175.10
2022-12-25T05:36:59.102Z,180.50
2022-12-25T05:37:59.072Z,166.60
2022-12-25T05:38:59.046Z,167.60
2022-12-25T05:39:59.052Z,170.30
2022-12-25T05:40:59.029Z,164.10
2022-12-25T05:41:59.077Z,165.60
2022-12-25T05:42:58.997Z,170.10
2022-12-25T05:43:59.015Z,165.40
2022-12-25T05:44:59.004Z,180.40
2022-12-25T05:45:59.103Z,181.10
2022-12-25T05:46:59.075Z,170.10
2022-12-25T05:47:58.970Z,170.00
2022-12-25T05:48:58.955Z,190.50
2022-12-25T05:49:58.940Z,192.30
2022-12-25T05:50:58.941Z,172.80
2022-12-25T05:51:58.903Z,197.60
2022-12-25T05:53:02.886Z,184.40
2022-12-25T05:53:58.882Z,178.50
2022-12-25T05:54:58.869Z,192.30
2022-12-25T05:55:58.901Z,179.50
2022-12-25T05:56:58.879Z,182.40
2022-12-25T05:57:58.852Z,193.00
2022-12-25T05:58:58.821Z,189.70
2022-12-25T05:59:58.842Z,202.90
2022-12-25T06:00:58.801Z,185.80
2022-12-25T06:01:58.947Z,194.90
2022-12-25T06:02:58.891Z,179.30
2022-12-25T06:03:58.885Z,191.90
2022-12-25T06:04:58.752Z,196.50
2022-12-25T06:05:58.793Z,177.40
2022-12-25T06:06:58.736Z,180.50
2022-12-25T06:07:58.748Z,206.20
2022-12-25T06:08:58.713Z,182.30
2022-12-25T06:09:58.749Z,178.20
2022-12-25T06:10:58.698Z,161.00
2022-12-25T06:11:58.713Z,185.70
2022-12-25T06:12:58.672Z,176.60
2022-12-25T06:13:58.675Z,157.50
2022-12-25T06:14:58.677Z,168.70
2022-12-25T06:15:58.778Z,169.80
2022-12-25T06:16:58.748Z,171.60
2022-12-25T06:17:58.637Z,164.00
2022-12-25T06:18:58.602Z,169.00
2022-12-25T06:19:58.639Z,175.40
2022-12-25T06:20:58.582Z,173.60
2022-12-25T06:21:58.609Z,180.60
2022-12-25T06:22:58.567Z,183.20
2022-12-25T06:23:58.599Z,171.30
2022-12-25T06:24:58.527Z,184.40
2022-12-25T06:25:58.530Z,178.60
2022-12-25T06:26:58.558Z,191.60
2022-12-25T06:27:58.538Z,197.10
2022-12-25T06:29:04.481Z,185.30
2022-12-25T06:30:04.476Z,194.50
2022-12-25T06:31:04.527Z,186.20
2022-12-25T06:31:58.507Z,207.00
2022-12-25T06:32:58.447Z,192.40
2022-12-25T06:33:58.428Z,198.10
2022-12-25T06:34:58.428Z,200.70
2022-12-25T06:35:58.405Z,196.00
2022-12-25T06:36:58.443Z,195.90
2022-12-25T06:37:58.379Z,196.50
2022-12-25T06:38:58.403Z,204.60
2022-12-25T06:39:58.371Z,184.40
2022-12-25T06:40:58.399Z,173.90
2022-12-25T06:41:58.340Z,185.40
2022-12-25T06:42:58.361Z,175.00
2022-12-25T06:43:58.328Z,181.70
2022-12-25T06:44:58.350Z,197.40
2022-12-25T06:45:58.398Z,182.20
2022-12-25T06:46:58.301Z,176.90
2022-12-25T06:47:58.276Z,165.30
2022-12-25T06:48:58.268Z,174.90
2022-12-25T06:49:58.291Z,172.00
2022-12-25T06:50:58.248Z,174.30
2022-12-25T06:51:58.235Z,175.80
2022-12-25T06:52:58.241Z,176.00
2022-12-25T06:53:58.205Z,176.50
2022-12-25T06:54:58.197Z,168.90
2022-12-25T06:55:59.039Z,178.20
2022-12-25T06:56:58.185Z,179.40
2022-12-25T06:57:58.157Z,186.20
2022-12-25T06:58:58.183Z,186.90
2022-12-25T06:59:58.171Z,187.50
2022-12-25T07:00:58.221Z,201.40
2022-12-25T07:01:58.458Z,203.40
2022-12-25T07:02:58.269Z,189.80
2022-12-25T07:03:58.086Z,202.70
2022-12-25T07:04:58.116Z,213.40
2022-12-25T07:05:58.065Z,205.90
2022-12-25T07:06:59.901Z,212.40
2022-12-25T07:07:58.077Z,232.80
2022-12-25T07:08:58.087Z,248.80
2022-12-25T07:09:58.058Z,227.10
2022-12-25T07:10:58.021Z,236.20
2022-12-25T07:11:57.998Z,234.90
2022-12-25T07:12:58.004Z,243.60
2022-12-25T07:13:57.979Z,238.40
2022-12-25T07:14:58.003Z,267.00
2022-12-25T07:15:57.965Z,241.20
2022-12-25T07:16:58.074Z,269.50
2022-12-25T07:17:57.958Z,268.60
2022-12-25T07:18:57.932Z,276.60
2022-12-25T07:19:57.901Z,273.10
2022-12-25T07:20:57.903Z,301.00
2022-12-25T07:21:57.897Z,284.40
2022-12-25T07:22:57.912Z,306.90
2022-12-25T07:23:57.879Z,283.70
2022-12-25T07:24:57.859Z,286.20
2022-12-25T07:25:57.834Z,265.80
2022-12-25T07:26:57.851Z,291.80
2022-12-25T07:27:57.845Z,318.90
2022-12-25T07:28:57.818Z,278.90
2022-12-25T07:29:57.802Z,292.70
2022-12-25T07:30:57.792Z,286.40
2022-12-25T07:31:57.807Z,299.90
2022-12-25T07:32:57.781Z,275.20
2022-12-25T07:33:57.783Z,285.60
2022-12-25T07:34:57.748Z,272.30
2022-12-25T07:35:57.724Z,292.30
2022-12-25T07:36:57.728Z,304.80
2022-12-25T07:37:58.583Z,262.30
2022-12-25T07:38:57.740Z,304.40
2022-12-25T07:39:57.738Z,308.60
2022-12-25T07:40:57.686Z,300.70
2022-12-25T07:41:57.652Z,299.10
2022-12-25T07:42:57.655Z,320.40
2022-12-25T07:43:57.658Z,312.70
2022-12-25T07:44:57.642Z,291.70
2022-12-25T07:45:57.656Z,335.70
2022-12-25T07:46:57.598Z,342.50
2022-12-25T07:48:02.713Z,307.00
2022-12-25T07:48:57.654Z,283.50
2022-12-25T07:49:57.576Z,300.50
2022-12-25T07:50:57.564Z,295.50
2022-12-25T07:51:57.540Z,274.00
2022-12-25T07:52:57.549Z,280.80
2022-12-25T07:53:57.520Z,270.00
2022-12-25T07:54:57.559Z,275.80
2022-12-25T07:55:57.496Z,283.90
2022-12-25T07:56:57.496Z,285.70
2022-12-25T07:57:57.475Z,278.70
2022-12-25T07:58:57.485Z,270.10
2022-12-25T07:59:57.492Z,319.40
2022-12-25T08:00:57.619Z,304.30
2022-12-25T08:01:57.680Z,327.20
2022-12-25T08:02:57.576Z,315.30
2022-12-25T08:03:57.535Z,308.40
2022-12-25T08:04:57.411Z,313.80
2022-12-25T08:05:57.380Z,339.70
2022-12-25T08:06:57.414Z,305.00
2022-12-25T08:07:58.263Z,299.90
2022-12-25T08:08:57.423Z,310.60
2022-12-25T08:09:57.345Z,319.10
2022-12-25T08:10:57.328Z,304.80
2022-12-25T08:11:57.338Z,302.10
2022-12-25T08:12:57.322Z,311.50
2022-12-25T08:13:57.341Z,309.50
2022-12-25T08:14:57.308Z,301.40
2022-12-25T08:15:57.266Z,270.40
2022-12-25T08:16:57.330Z,278.00
2022-12-25T08:17:57.243Z,252.50
2022-12-25T08:18:57.256Z,251.00
2022-12-25T08:19:57.253Z,295.90
2022-12-25T08:20:57.229Z,236.60
2022-12-25T08:21:57.204Z,227.90
2022-12-25T08:22:57.248Z,240.30
2022-12-25T08:23:57.192Z,234.20
2022-12-25T08:24:57.182Z,228.30
2022-12-25T08:26:02.372Z,237.60
2022-12-25T08:26:57.164Z,231.80
2022-12-25T08:27:57.181Z,208.10
2022-12-25T08:28:57.142Z,219.00
2022-12-25T08:29:57.112Z,207.40
2022-12-25T08:30:57.183Z,211.20
2022-12-25T08:31:57.334Z,224.10
2022-12-25T08:32:57.128Z,223.60
2022-12-25T08:33:57.070Z,216.90
2022-12-25T08:34:57.074Z,188.40
2022-12-25T08:35:57.045Z,176.40
2022-12-25T08:36:57.052Z,198.90
2022-12-25T08:37:57.055Z,192.70
2022-12-25T08:39:02.521Z,213.00
2022-12-25T08:39:57.057Z,205.30
2022-12-25T08:40:57.014Z,205.30
2022-12-25T08:41:56.983Z,176.20
2022-12-25T08:42:56.989Z,168.40
2022-12-25T08:43:56.980Z,178.00
2022-12-25T08:44:56.989Z,180.30
2022-12-25T08:45:57.061Z,180.80
2022-12-25T08:46:59.090Z,172.40
2022-12-25T08:47:56.975Z,182.00
2022-12-25T08:48:57.010Z,188.80
2022-12-25T08:49:57.337Z,175.80
2022-12-25T08:50:56.904Z,173.10
2022-12-25T08:51:56.883Z,185.90
2022-12-25T08:52:56.900Z,185.60
2022-12-25T08:53:56.883Z,173.80
2022-12-25T08:54:56.898Z,173.10
2022-12-25T08:55:56.838Z,173.60
2022-12-25T08:57:02.445Z,187.70
2022-12-25T08:57:56.804Z,184.80
2022-12-25T08:58:56.859Z,180.90
2022-12-25T08:59:56.812Z,185.20
2022-12-25T09:00:56.887Z,177.90
2022-12-25T09:01:56.937Z,175.10
2022-12-25T09:02:56.839Z,175.40
2022-12-25T09:03:56.759Z,186.00
2022-12-25T09:04:56.776Z,191.40
2022-12-25T09:05:56.705Z,172.30
2022-12-25T09:06:56.755Z,178.90
2022-12-25T09:07:56.692Z,191.40
2022-12-25T09:08:56.727Z,209.20
2022-12-25T09:09:56.686Z,180.30
2022-12-25T09:10:56.677Z,202.70
2022-12-25T09:11:56.648Z,194.90
2022-12-25T09:12:56.652Z,201.40
2022-12-25T09:13:56.670Z,211.50
2022-12-25T09:14:56.623Z,209.70
2022-12-25T09:15:56.649Z,217.80
2022-12-25T09:16:56.604Z,206.80
2022-12-25T09:17:56.576Z,208.50
2022-12-25T09:18:56.613Z,188.30
2022-12-25T09:19:56.547Z,192.40
2022-12-25T09:20:56.564Z,190.20
2022-12-25T09:21:56.535Z,201.10
2022-12-25T09:22:56.560Z,204.10
2022-12-25T09:23:56.509Z,227.80
2022-12-25T09:24:56.521Z,207.30
2022-12-25T09:25:56.481Z,206.60
2022-12-25T09:26:56.482Z,220.10
2022-12-25T09:27:56.531Z,220.20
2022-12-25T09:28:56.483Z,206.80
2022-12-25T09:29:56.443Z,219.80
2022-12-25T09:30:56.496Z,234.80
2022-12-25T09:31:56.413Z,269.90
2022-12-25T09:32:56.425Z,251.00
2022-12-25T09:33:56.424Z,241.70
2022-12-25T09:34:56.395Z,262.10
2022-12-25T09:35:56.367Z,242.20
2022-12-25T09:36:56.369Z,286.00
2022-12-25T09:37:56.359Z,241.10
2022-12-25T09:38:56.388Z,257.70
2022-12-25T09:39:56.334Z,234.00
2022-12-25T09:40:56.330Z,278.50
2022-12-25T09:41:56.303Z,255.10
2022-12-25T09:42:56.304Z,244.90
2022-12-25T09:43:56.314Z,271.20
2022-12-25T09:44:56.285Z,240.60
2022-12-25T09:45:56.310Z,244.90
2022-12-25T09:46:56.346Z,231.10
2022-12-25T09:47:56.235Z,228.70
2022-12-25T09:48:56.321Z,231.10
2022-12-25T09:49:56.235Z,249.30
2022-12-25T09:50:56.257Z,216.50
2022-12-25T09:51:56.185Z,230.20
2022-12-25T09:52:56.189Z,224.90
2022-12-25T09:53:56.172Z,225.00
2022-12-25T09:54:56.202Z,251.20
2022-12-25T09:55:56.148Z,225.00
2022-12-25T09:56:56.183Z,232.10
2022-12-25T09:57:56.128Z,261.20
2022-12-25T09:58:56.133Z,290.50
2022-12-25T09:59:56.113Z,272.40
2022-12-25T10:00:56.121Z,258.60
2022-12-25T10:01:56.187Z,258.40
2022-12-25T10:02:56.284Z,243.20
2022-12-25T10:03:56.144Z,247.30
2022-12-25T10:04:56.061Z,244.40
2022-12-25T10:05:56.066Z,256.80
2022-12-25T10:06:56.036Z,249.80
2022-12-25T10:07:56.020Z,248.80
2022-12-25T10:08:56.061Z,238.70
2022-12-25T10:09:56.011Z,251.30
2022-12-25T10:10:56.031Z,219.60
2022-12-25T10:11:56.022Z,224.60
2022-12-25T10:12:55.984Z,222.30
2022-12-25T10:13:56.007Z,226.80
2022-12-25T10:14:55.939Z,214.50
2022-12-25T10:15:55.976Z,225.60
2022-12-25T10:16:55.912Z,226.20
2022-12-25T10:17:55.952Z,253.60
2022-12-25T10:18:55.911Z,244.20
2022-12-25T10:19:55.889Z,234.80
2022-12-25T10:20:55.872Z,221.30
2022-12-25T10:21:55.877Z,237.30
2022-12-25T10:22:55.891Z,235.20
2022-12-25T10:23:55.886Z,239.30
2022-12-25T10:24:55.830Z,227.00
2022-12-25T10:25:55.813Z,220.00
2022-12-25T10:26:55.799Z,204.30
2022-12-25T10:27:55.855Z,202.90
2022-12-25T10:28:55.771Z,191.00
2022-12-25T10:29:55.782Z,202.80
2022-12-25T10:30:55.834Z,209.00
2022-12-25T10:31:55.779Z,172.70
2022-12-25T10:32:55.770Z,199.30
2022-12-25T10:33:55.767Z,189.60
2022-12-25T10:34:55.726Z,173.90
2022-12-25T10:35:55.710Z,191.00
2022-12-25T10:36:55.699Z,183.00
2022-12-25T10:37:55.685Z,168.00
2022-12-25T10:38:55.717Z,182.90
2022-12-25T10:39:55.672Z,185.30
2022-12-25T10:40:55.703Z,174.90
2022-12-25T10:41:55.644Z,163.00
2022-12-25T10:42:55.658Z,159.20
2022-12-25T10:43:55.647Z,156.30
2022-12-25T10:44:55.596Z,154.80
2022-12-25T10:45:56.581Z,161.00
2022-12-25T10:46:55.631Z,158.50
2022-12-25T10:48:03.440Z,156.60
2022-12-25T10:48:55.589Z,157.80
2022-12-25T10:49:55.554Z,137.80
2022-12-25T10:50:55.530Z,149.90
2022-12-25T10:51:55.566Z,138.30
2022-12-25T10:52:55.617Z,138.80
2022-12-25T10:53:55.510Z,134.60
2022-12-25T10:54:55.491Z,137.50
2022-12-25T10:55:55.483Z,126.70
2022-12-25T10:56:55.461Z,133.30
2022-12-25T10:57:55.503Z,124.20
2022-12-25T10:58:56.500Z,135.90
2022-12-25T10:59:55.440Z,123.30
2022-12-25T11:00:55.467Z,125.40
2022-12-25T11:01:55.874Z,123.60
2022-12-25T11:02:55.757Z,126.10
2022-12-25T11:03:55.482Z,112.20
2022-12-25T11:04:55.365Z,118.70
2022-12-25T11:05:55.372Z,115.80
2022-12-25T11:06:55.347Z,119.30
2022-12-25T11:07:55.365Z,95.80
2022-12-25T11:08:55.370Z,111.30
2022-12-25T11:09:59.334Z,113.60
2022-12-25T11:10:55.344Z,119.00
2022-12-25T11:11:55.354Z,110.60
2022-12-25T11:12:55.397Z,96.60
2022-12-25T11:13:55.273Z,97.80
2022-12-25T11:14:55.259Z,92.30
2022-12-25T11:15:55.276Z,100.90
2022-12-25T11:16:55.227Z,97.10
2022-12-25T11:17:55.312Z,96.60
2022-12-25T11:18:55.207Z,89.40
2022-12-25T11:19:55.259Z,87.20
2022-12-25T11:20:55.208Z,92.70
2022-12-25T11:21:55.237Z,88.10
2022-12-25T11:22:55.219Z,92.30
2022-12-25T11:23:55.237Z,91.20
2022-12-25T11:24:55.131Z,94.10
2022-12-25T11:25:55.150Z,85.60
2022-12-25T11:26:55.147Z,87.00
2022-12-25T11:27:55.121Z,77.50
2022-12-25T11:28:55.112Z,81.50
2022-12-25T11:29:55.125Z,86.90
2022-12-25T11:30:55.101Z,78.80
2022-12-25T11:31:55.174Z,78.50
2022-12-25T11:32:55.048Z,74.50
2022-12-25T11:33:55.050Z,79.90
2022-12-25T11:34:56.201Z,71.40
2022-12-25T11:35:55.025Z,72.30
2022-12-25T11:36:55.515Z,68.50
2022-12-25T11:37:55.036Z,75.70
2022-12-25T11:38:55.150Z,62.70
2022-12-25T11:39:55.023Z,75.50
2022-12-25T11:40:54.968Z,65.70
2022-12-25T11:41:55.017Z,66.80
2022-12-25T11:42:54.937Z,65.00
2022-12-25T11:43:54.940Z,67.30
2022-12-25T11:44:55.211Z,73.60
2022-12-25T11:45:54.948Z,71.50
2022-12-25T11:46:55.065Z,64.70
2022-12-25T11:47:54.890Z,66.00
2022-12-25T11:48:54.899Z,63.10
2022-12-25T11:50:00.032Z,59.90
2022-12-25T11:50:54.839Z,61.60
2022-12-25T11:51:54.921Z,59.70
2022-12-25T11:52:54.822Z,62.40
2022-12-25T11:53:54.852Z,60.50
2022-12-25T11:54:54.810Z,57.20
2022-12-25T11:55:54.884Z,55.80
2022-12-25T11:56:54.805Z,56.80
2022-12-25T11:57:54.816Z,63.60
2022-12-25T11:58:54.795Z,54.50
2022-12-25T11:59:54.752Z,58.30
2022-12-25T12:00:54.737Z,52.20
2022-12-25T12:01:54.869Z,57.00
2022-12-25T12:02:54.868Z,60.30
2022-12-25T12:03:54.791Z,54.60
2022-12-25T12:04:54.682Z,49.00
2022-12-25T12:05:54.682Z,51.20
2022-12-25T12:06:54.667Z,56.60
2022-12-25T12:07:54.660Z,55.80
2022-12-25T12:08:54.661Z,54.50
2022-12-25T12:09:54.636Z,50.70
2022-12-25T12:10:54.661Z,50.80
2022-12-25T12:11:54.614Z,49.00
2022-12-25T12:12:54.607Z,47.60
2022-12-25T12:13:54.585Z,49.00
2022-12-25T12:14:54.562Z,47.40
2022-12-25T12:15:54.572Z,50.10
2022-12-25T12:16:54.701Z,46.10
2022-12-25T12:17:54.542Z,53.20
2022-12-25T12:18:54.555Z,47.90
2022-12-25T12:19:54.529Z,45.80
2022-12-25T12:20:54.542Z,45.30
2022-12-25T12:21:54.598Z,48.40
2022-12-25T12:22:54.481Z,47.50
2022-12-25T12:23:54.529Z,44.70
2022-12-25T12:24:54.457Z,44.40
2022-12-25T12:25:54.459Z,43.30
2022-12-25T12:26:54.438Z,50.40
2022-12-25T12:27:58.458Z,45.10
2022-12-25T12:28:54.426Z,44.20
2022-12-25T12:29:54.451Z,41.30